createdAt,value
2024-04-24T00:02:11.313Z,59.59
2024-04-24T00:04:38.403Z,59.42
2024-04-24T00:07:05.603Z,59.56
2024-04-24T00:09:32.767Z,59.75
2024-04-24T00:11:59.951Z,59.76
2024-04-24T00:14:27.143Z,59.42
2024-04-24T00:16:54.758Z,60.08
2024-04-24T00:19:21.854Z,59.91
2024-04-24T00:21:49.032Z,60.18
2024-04-24T00:24:16.147Z,60.12
2024-04-24T00:26:43.535Z,60.43
2024-04-24T00:29:10.621Z,61.21
2024-04-24T00:31:37.718Z,60.76
2024-04-24T00:34:04.746Z,61.52
2024-04-24T00:36:32.029Z,61.56
2024-04-24T00:38:59.138Z,62.10
2024-04-24T00:41:26.347Z,61.73
2024-04-24T00:43:53.465Z,61.94
2024-04-24T00:46:21.618Z,61.98
2024-04-24T00:48:48.986Z,62.71
2024-04-24T00:51:17.134Z,62.24
2024-04-24T00:53:44.231Z,62.86
2024-04-24T00:56:11.600Z,62.16
2024-04-24T00:58:39.401Z,62.46
2024-04-24T01:01:07.554Z,62.41
2024-04-24T01:03:34.663Z,61.99
2024-04-24T01:06:01.854Z,62.05
2024-04-24T01:08:29.157Z,61.96
2024-04-24T01:11:00.133Z,61.81
2024-04-24T01:13:28.028Z,62.33
2024-04-24T01:16:00.806Z,62.44
2024-04-24T01:18:31.530Z,62.66
2024-04-24T01:21:02.809Z,62.31
2024-04-24T01:23:36.026Z,62.08
2024-04-24T01:26:17.440Z,61.95
2024-04-24T01:28:44.610Z,62.50
2024-04-24T01:31:11.674Z,62.08
2024-04-24T01:33:38.920Z,62.15
2024-04-24T01:36:06.356Z,62.80
2024-04-24T01:38:33.474Z,62.70
2024-04-24T01:41:00.656Z,62.62
2024-04-24T01:43:27.871Z,62.85
2024-04-24T01:45:54.922Z,62.11
2024-04-24T01:48:22.160Z,63.02
2024-04-24T01:50:49.249Z,63.86
2024-04-24T01:53:16.614Z,64.10
2024-04-24T01:55:43.797Z,64.00
2024-04-24T01:58:10.906Z,64.28
2024-04-24T02:00:38.024Z,63.61
2024-04-24T02:03:05.594Z,63.87
2024-04-24T02:05:32.713Z,64.01
2024-04-24T02:07:59.898Z,64.36
2024-04-24T02:10:26.992Z,64.12
2024-04-24T02:12:54.201Z,63.65
2024-04-24T02:15:21.343Z,63.66
2024-04-24T02:17:48.596Z,63.11
2024-04-24T02:20:15.730Z,62.91
2024-04-24T02:22:43.012Z,62.21
2024-04-24T02:25:10.846Z,62.36
2024-04-24T02:27:37.962Z,62.06
2024-04-24T02:30:05.603Z,62.46
2024-04-24T02:32:32.884Z,62.11
2024-04-24T02:35:00.105Z,61.95
2024-04-24T02:37:28.370Z,62.45
2024-04-24T02:39:55.456Z,61.55
2024-04-24T02:42:22.554Z,61.72
2024-04-24T02:44:49.606Z,61.76
2024-04-24T02:47:16.941Z,61.32
2024-04-24T02:49:44.238Z,60.96
2024-04-24T02:52:11.335Z,60.36
2024-04-24T02:54:38.427Z,59.89
2024-04-24T02:57:05.674Z,59.29
2024-04-24T02:59:32.752Z,57.80
2024-04-24T03:01:59.994Z,54.14
2024-04-24T03:04:27.020Z,51.67
2024-04-24T03:06:54.186Z,47.43
2024-04-24T03:09:21.309Z,44.39
2024-04-24T03:11:48.439Z,42.61
2024-04-24T03:14:19.259Z,39.92
2024-04-24T03:16:46.577Z,38.71
2024-04-24T03:19:13.692Z,37.81
2024-04-24T03:21:40.836Z,36.57
2024-04-24T03:24:08.533Z,35.36
2024-04-24T03:26:35.729Z,34.12
2024-04-24T03:29:03.219Z,33.24
2024-04-24T03:31:33.851Z,32.42
2024-04-24T03:34:01.258Z,31.60
2024-04-24T03:36:28.259Z,30.36
2024-04-24T03:38:57.286Z,30.34
2024-04-24T03:41:24.470Z,30.36
2024-04-24T03:43:51.596Z,29.02
2024-04-24T03:46:18.672Z,28.64
2024-04-24T03:48:45.813Z,28.30
2024-04-24T03:51:13.206Z,28.76
2024-04-24T03:53:40.339Z,28.50
2024-04-24T03:56:08.432Z,28.09
2024-04-24T03:58:35.767Z,27.72
2024-04-24T04:01:02.973Z,27.45
2024-04-24T04:03:30.026Z,26.83
2024-04-24T04:05:57.077Z,26.81
2024-04-24T04:08:24.565Z,26.76
2024-04-24T04:10:52.074Z,26.81
2024-04-24T04:13:19.175Z,26.77
2024-04-24T04:15:46.221Z,27.25
2024-04-24T04:18:13.415Z,27.59
2024-04-24T04:20:40.592Z,27.71
2024-04-24T04:23:07.696Z,27.86
2024-04-24T04:25:34.760Z,27.59
2024-04-24T04:28:01.783Z,27.44
2024-04-24T04:30:28.983Z,27.83
2024-04-24T04:32:56.041Z,27.39
2024-04-24T04:35:23.241Z,28.81
2024-04-24T04:37:50.420Z,29.39
2024-04-24T04:40:17.476Z,29.79
2024-04-24T04:42:44.527Z,29.07
2024-04-24T04:45:11.649Z,29.51
2024-04-24T04:47:38.847Z,29.60
2024-04-24T04:50:06.612Z,29.99
2024-04-24T04:52:33.703Z,30.41
2024-04-24T04:55:00.770Z,30.23
2024-04-24T04:57:27.867Z,31.70
2024-04-24T04:59:54.927Z,31.82
2024-04-24T05:02:22.167Z,32.73
2024-04-24T05:04:49.337Z,32.58
2024-04-24T05:07:16.478Z,32.73
2024-04-24T05:09:43.574Z,32.50
2024-04-24T05:12:10.662Z,31.23
2024-04-24T05:14:37.763Z,30.88
2024-04-24T05:17:04.913Z,31.49
2024-04-24T05:19:32.002Z,31.78
2024-04-24T05:21:59.100Z,31.61
2024-04-24T05:24:26.134Z,31.46
2024-04-24T05:26:54.529Z,31.70
2024-04-24T05:29:21.754Z,31.78
2024-04-24T05:31:48.872Z,31.77
2024-04-24T05:34:16.048Z,30.25
2024-04-24T05:36:43.380Z,30.32
2024-04-24T05:39:10.479Z,30.05
2024-04-24T05:41:38.856Z,29.67
2024-04-24T05:44:05.939Z,29.62
2024-04-24T05:46:33.034Z,29.89
2024-04-24T05:49:00.134Z,29.73
2024-04-24T05:51:27.290Z,28.31
2024-04-24T05:53:54.418Z,28.46
2024-04-24T05:56:21.523Z,28.51
2024-04-24T05:58:48.686Z,29.16
2024-04-24T06:01:15.887Z,28.96
2024-04-24T06:03:42.983Z,29.65
2024-04-24T06:06:12.338Z,29.23
2024-04-24T06:08:39.370Z,28.61
2024-04-24T06:11:06.518Z,28.98
2024-04-24T06:13:33.785Z,28.98
2024-04-24T06:16:00.862Z,28.51
2024-04-24T06:18:27.936Z,28.70
2024-04-24T06:20:55.053Z,28.80
2024-04-24T06:23:22.277Z,29.13
2024-04-24T06:25:49.508Z,28.95
2024-04-24T06:28:16.636Z,27.88
2024-04-24T06:30:45.548Z,27.55
2024-04-24T06:33:12.770Z,27.50
2024-04-24T06:35:40.065Z,27.42
2024-04-24T06:38:09.290Z,28.15
2024-04-24T06:40:36.454Z,25.46
2024-04-24T06:43:03.755Z,25.44
2024-04-24T06:45:30.912Z,25.80
2024-04-24T06:47:58.067Z,25.49
2024-04-24T06:50:25.213Z,26.02
2024-04-24T06:52:53.422Z,26.77
2024-04-24T06:55:20.494Z,26.26
2024-04-24T06:57:47.579Z,26.11
2024-04-24T07:00:14.893Z,26.09
2024-04-24T07:02:42.084Z,25.89
2024-04-24T07:05:09.259Z,25.88
2024-04-24T07:07:36.439Z,25.31
2024-04-24T07:10:03.572Z,25.56
2024-04-24T07:12:30.663Z,25.68
2024-04-24T07:14:57.682Z,24.70
2024-04-24T07:17:24.952Z,25.29
2024-04-24T07:19:52.167Z,24.46
2024-04-24T07:22:20.899Z,24.83
2024-04-24T07:24:48.427Z,23.96
2024-04-24T07:27:18.777Z,25.01
2024-04-24T07:29:47.699Z,24.86
2024-04-24T07:32:17.667Z,24.95
2024-04-24T07:34:44.685Z,24.92
2024-04-24T07:37:13.124Z,24.77
2024-04-24T07:39:40.773Z,24.72
2024-04-24T07:42:07.829Z,24.91
2024-04-24T07:44:35.028Z,24.40
2024-04-24T07:47:04.276Z,24.75
2024-04-24T07:49:31.745Z,24.36
2024-04-24T07:51:58.768Z,25.37
2024-04-24T07:54:25.833Z,23.78
2024-04-24T07:56:53.281Z,24.07
2024-04-24T07:59:20.330Z,24.20
2024-04-24T08:01:47.750Z,23.85
2024-04-24T08:04:15.083Z,24.17
2024-04-24T08:06:42.633Z,23.92
2024-04-24T08:09:13.638Z,24.12
2024-04-24T08:11:40.835Z,24.51
2024-04-24T08:14:08.077Z,23.91
2024-04-24T08:16:36.727Z,23.82
2024-04-24T08:19:05.132Z,24.04
2024-04-24T08:21:32.223Z,24.20
2024-04-24T08:23:59.987Z,24.14
2024-04-24T08:26:28.907Z,23.99
2024-04-24T08:28:56.123Z,24.93
2024-04-24T08:31:24.571Z,23.65
2024-04-24T08:33:51.664Z,24.09
2024-04-24T08:36:20.305Z,24.03
2024-04-24T08:38:47.426Z,23.57
2024-04-24T08:41:14.820Z,23.74
2024-04-24T08:43:45.033Z,22.81
2024-04-24T08:46:13.726Z,23.17
2024-04-24T08:48:45.986Z,22.78
2024-04-24T08:51:17.712Z,23.49
2024-04-24T08:54:12.072Z,23.29
2024-04-24T08:56:54.295Z,22.29
2024-04-24T08:59:24.450Z,23.31
2024-04-24T09:02:01.954Z,23.25
2024-04-24T09:04:30.339Z,22.56
2024-04-24T09:07:00.310Z,22.87
2024-04-24T09:09:28.936Z,22.46
2024-04-24T09:12:01.054Z,22.54
2024-04-24T09:14:30.646Z,22.54
2024-04-24T09:16:58.998Z,24.09
2024-04-24T09:19:27.631Z,23.55
2024-04-24T09:21:54.773Z,23.87
2024-04-24T09:24:22.096Z,23.37
2024-04-24T09:26:49.951Z,22.89
2024-04-24T09:29:17.801Z,23.66
2024-04-24T09:31:46.603Z,21.46
2024-04-24T09:34:16.076Z,21.64
2024-04-24T09:36:44.897Z,22.03
2024-04-24T09:39:17.254Z,21.95
2024-04-24T09:41:47.725Z,21.48
2024-04-24T09:44:16.636Z,21.78
2024-04-24T09:46:51.779Z,23.13
2024-04-24T09:49:21.060Z,22.52
2024-04-24T09:51:50.522Z,22.74
2024-04-24T09:54:19.458Z,21.73
2024-04-24T09:56:46.719Z,21.88
2024-04-24T09:59:14.811Z,21.87
2024-04-24T10:01:52.472Z,21.55
2024-04-24T10:04:20.739Z,21.67
2024-04-24T10:06:51.342Z,21.52
2024-04-24T10:09:23.270Z,21.74
2024-04-24T10:11:56.768Z,22.03
2024-04-24T10:14:26.601Z,21.26
2024-04-24T10:17:14.476Z,21.87
2024-04-24T10:19:43.983Z,21.96
2024-04-24T10:22:11.609Z,22.35
2024-04-24T10:24:39.768Z,22.15
2024-04-24T10:27:07.675Z,23.15
2024-04-24T10:29:39.282Z,22.68
2024-04-24T10:32:09.374Z,23.50
2024-04-24T10:34:39.340Z,22.75
2024-04-24T10:37:08.910Z,23.41
2024-04-24T10:39:45.806Z,22.67
2024-04-24T10:42:16.235Z,22.15
2024-04-24T10:45:02.006Z,22.19
2024-04-24T10:47:29.287Z,21.93
2024-04-24T10:49:58.518Z,21.70
2024-04-24T10:52:26.378Z,20.84
2024-04-24T10:54:54.805Z,21.28
2024-04-24T10:57:32.099Z,21.06
2024-04-24T11:00:12.580Z,21.43
2024-04-24T11:02:40.927Z,21.60
2024-04-24T11:05:08.176Z,22.51
2024-04-24T11:07:38.827Z,21.48
2024-04-24T11:10:08.394Z,21.35
2024-04-24T11:12:40.032Z,21.76
2024-04-24T11:15:18.620Z,21.88
2024-04-24T11:17:49.562Z,21.59
2024-04-24T11:20:18.970Z,21.69
2024-04-24T11:22:46.281Z,21.09
2024-04-24T11:25:16.982Z,21.03
2024-04-24T11:27:47.184Z,21.06
2024-04-24T11:30:17.669Z,19.90
2024-04-24T11:32:49.181Z,20.95
2024-04-24T11:35:29.861Z,20.61
2024-04-24T11:37:57.184Z,20.63
2024-04-24T11:40:25.899Z,20.75
2024-04-24T11:42:55.397Z,20.75
2024-04-24T11:45:26.145Z,20.73
2024-04-24T11:47:53.700Z,20.31
2024-04-24T11:50:21.375Z,20.83
2024-04-24T11:52:49.308Z,20.51
2024-04-24T11:55:17.645Z,21.47
2024-04-24T11:57:46.110Z,20.90
2024-04-24T12:00:33.212Z,21.16
2024-04-24T12:03:04.478Z,21.08
2024-04-24T12:05:32.873Z,21.06
2024-04-24T12:08:00.217Z,21.09
2024-04-24T12:10:27.494Z,21.26
2024-04-24T12:12:56.828Z,20.82
2024-04-24T12:15:24.503Z,20.55
2024-04-24T12:17:51.675Z,21.38
2024-04-24T12:20:18.882Z,21.67
2024-04-24T12:22:46.024Z,21.57
2024-04-24T12:25:13.220Z,21.59
2024-04-24T12:27:41.434Z,21.65
2024-04-24T12:30:11.405Z,22.14
2024-04-24T12:32:39.916Z,22.28
2024-04-24T12:35:09.827Z,22.32
2024-04-24T12:37:41.265Z,22.55
2024-04-24T12:40:09.285Z,22.54
2024-04-24T12:42:38.748Z,22.98
2024-04-24T12:45:08.372Z,23.22
2024-04-24T12:47:36.919Z,23.22
2024-04-24T12:50:04.400Z,23.14
2024-04-24T12:52:36.089Z,23.41
2024-04-24T12:55:03.356Z,23.51
2024-04-24T12:57:30.459Z,23.37
2024-04-24T12:59:58.865Z,23.35
2024-04-24T13:02:26.731Z,23.38
2024-04-24T13:04:54.027Z,23.29
2024-04-24T13:07:22.387Z,23.53
2024-04-24T13:09:50.931Z,22.93
2024-04-24T13:12:21.979Z,23.04
2024-04-24T13:14:50.879Z,22.62
2024-04-24T13:17:20.844Z,23.22
2024-04-24T13:19:49.462Z,22.93
2024-04-24T13:22:17.243Z,22.63
2024-04-24T13:24:44.421Z,23.11
2024-04-24T13:27:11.621Z,22.92
2024-04-24T13:29:42.874Z,23.38
2024-04-24T13:32:10.167Z,22.78
2024-04-24T13:34:38.528Z,23.75
2024-04-24T13:37:05.645Z,22.55
2024-04-24T13:39:32.668Z,22.31
2024-04-24T13:41:59.803Z,22.06
2024-04-24T13:44:30.020Z,22.30
2024-04-24T13:46:57.303Z,22.91
2024-04-24T13:49:24.828Z,22.39
2024-04-24T13:51:52.066Z,21.91
2024-04-24T13:54:19.243Z,21.77
2024-04-24T13:56:47.184Z,22.12
2024-04-24T13:59:14.352Z,22.53
2024-04-24T14:01:41.488Z,22.60
2024-04-24T14:04:11.683Z,22.66
2024-04-24T14:06:38.980Z,22.41
2024-04-24T14:09:06.155Z,22.61
2024-04-24T14:12:10.733Z,23.18
2024-04-24T14:14:37.937Z,22.99
2024-04-24T14:17:05.041Z,23.06
2024-04-24T14:19:32.919Z,22.77
2024-04-24T14:21:59.937Z,23.32
2024-04-24T14:24:27.732Z,100.00
2024-04-24T14:26:57.146Z,23.39
2024-04-24T14:29:24.303Z,23.72
2024-04-24T14:32:09.860Z,23.20
2024-04-24T14:34:37.053Z,23.50
2024-04-24T14:37:04.373Z,24.04
2024-04-24T14:39:31.782Z,23.80
2024-04-24T14:41:58.834Z,23.90
2024-04-24T14:44:26.932Z,24.72
2024-04-24T14:46:54.331Z,24.60
2024-04-24T14:49:21.635Z,25.03
2024-04-24T14:51:51.419Z,25.17
2024-04-24T14:54:19.179Z,25.09
2024-04-24T14:56:46.222Z,25.71
2024-04-24T14:59:13.384Z,26.22
2024-04-24T15:01:40.624Z,26.86
2024-04-24T15:04:10.856Z,26.96
2024-04-24T15:07:09.200Z,27.56
2024-04-24T15:09:36.721Z,26.78
2024-04-24T15:12:04.855Z,26.64
2024-04-24T15:14:51.037Z,26.31
2024-04-24T15:17:18.375Z,26.61
2024-04-24T15:19:46.047Z,26.53
2024-04-24T15:22:13.480Z,26.54
2024-04-24T15:24:42.096Z,26.15
2024-04-24T15:27:09.718Z,26.33
2024-04-24T15:29:36.940Z,25.89
2024-04-24T15:32:06.090Z,26.42
2024-04-24T15:34:33.362Z,25.71
2024-04-24T15:37:00.532Z,26.14
2024-04-24T15:39:27.987Z,26.56
2024-04-24T15:41:55.159Z,27.97
2024-04-24T15:44:25.458Z,27.19
2024-04-24T15:46:52.881Z,27.25
2024-04-24T15:49:22.649Z,27.49
2024-04-24T15:51:49.796Z,27.56
2024-04-24T15:54:17.129Z,27.65
2024-04-24T15:56:44.969Z,27.96
2024-04-24T15:59:12.154Z,28.04
2024-04-24T16:01:40.441Z,28.29
2024-04-24T16:04:07.624Z,28.38
2024-04-24T16:06:34.942Z,28.24
2024-04-24T16:09:02.026Z,28.36
2024-04-24T16:11:29.262Z,28.40
2024-04-24T16:13:57.370Z,28.86
2024-04-24T16:16:25.583Z,28.46
2024-04-24T16:18:53.622Z,28.44
2024-04-24T16:21:21.626Z,28.27
2024-04-24T16:23:49.753Z,28.14
2024-04-24T16:26:17.764Z,28.44
2024-04-24T16:28:45.795Z,28.10
2024-04-24T16:31:12.918Z,28.39
2024-04-24T16:33:40.883Z,28.79
2024-04-24T16:36:09.615Z,29.11
2024-04-24T16:38:38.167Z,29.90
2024-04-24T16:41:23.872Z,30.40
2024-04-24T16:43:53.065Z,30.53
2024-04-24T16:46:21.174Z,30.39
2024-04-24T16:48:48.497Z,30.50
2024-04-24T16:51:15.710Z,30.02
2024-04-24T16:53:42.780Z,29.95
2024-04-24T16:56:10.785Z,30.15
2024-04-24T16:58:39.751Z,29.83
2024-04-24T17:01:06.882Z,30.06
2024-04-24T17:03:34.000Z,29.67
2024-04-24T17:06:02.352Z,29.80
2024-04-24T17:08:30.743Z,30.07
2024-04-24T17:11:00.720Z,30.40
2024-04-24T17:13:29.100Z,29.82
2024-04-24T17:15:56.622Z,30.31
2024-04-24T17:18:24.436Z,30.43
2024-04-24T17:20:53.722Z,30.49
2024-04-24T17:23:21.540Z,30.48
2024-04-24T17:25:49.700Z,30.58
2024-04-24T17:28:16.988Z,30.57
2024-04-24T17:30:44.391Z,30.41
2024-04-24T17:33:12.620Z,30.34
2024-04-24T17:35:39.794Z,30.15
2024-04-24T17:38:06.924Z,29.55
2024-04-24T17:40:34.108Z,30.02
2024-04-24T17:43:01.171Z,29.91
2024-04-24T17:45:28.360Z,29.91
2024-04-24T17:47:57.079Z,30.21
2024-04-24T17:50:24.346Z,29.86
2024-04-24T17:52:51.415Z,30.27
2024-04-24T17:55:18.679Z,30.35
2024-04-24T17:57:45.855Z,30.69
2024-04-24T18:00:14.199Z,30.09
2024-04-24T18:02:42.762Z,30.76
2024-04-24T18:05:09.858Z,30.90
2024-04-24T18:07:37.153Z,30.83
2024-04-24T18:10:04.450Z,30.96
2024-04-24T18:12:32.696Z,30.96
2024-04-24T18:15:01.154Z,30.42
2024-04-24T18:17:28.386Z,31.05
2024-04-24T18:19:55.481Z,31.16
2024-04-24T18:22:22.548Z,31.10
2024-04-24T18:24:49.954Z,31.74
2024-04-24T18:27:17.021Z,31.90
2024-04-24T18:29:44.446Z,32.26
2024-04-24T18:32:11.956Z,32.05
2024-04-24T18:34:39.696Z,31.83
2024-04-24T18:37:06.841Z,32.27
2024-04-24T18:39:34.201Z,32.45
2024-04-24T18:42:02.636Z,32.01
2024-04-24T18:44:29.925Z,31.61
2024-04-24T18:46:57.516Z,32.20
2024-04-24T18:49:27.772Z,32.18
2024-04-24T18:51:54.874Z,32.23
2024-04-24T18:54:21.994Z,32.22
2024-04-24T18:56:50.222Z,31.95
2024-04-24T18:59:19.072Z,31.92
2024-04-24T19:01:46.447Z,32.32
2024-04-24T19:04:15.034Z,32.25
2024-04-24T19:06:43.684Z,32.30
2024-04-24T19:09:10.753Z,32.42
2024-04-24T19:11:40.573Z,32.87
2024-04-24T19:14:07.797Z,32.88
2024-04-24T19:16:36.523Z,33.04
2024-04-24T19:19:04.461Z,32.87
2024-04-24T19:21:32.760Z,33.30
2024-04-24T19:24:00.368Z,33.03
2024-04-24T19:26:29.614Z,33.10
2024-04-24T19:28:56.886Z,33.22
2024-04-24T19:31:38.872Z,33.02
2024-04-24T19:34:07.213Z,32.96
2024-04-24T19:36:37.008Z,33.06
2024-04-24T19:39:04.952Z,33.23
2024-04-24T19:41:33.548Z,33.05
2024-04-24T19:44:01.600Z,32.85
2024-04-24T19:46:29.552Z,32.78
2024-04-24T19:48:56.651Z,32.51
2024-04-24T19:51:23.740Z,32.56
2024-04-24T19:53:53.933Z,32.49
2024-04-24T19:56:21.905Z,32.11
2024-04-24T19:58:49.019Z,32.22
2024-04-24T20:01:16.240Z,32.35
2024-04-24T20:03:43.567Z,32.38
2024-04-24T20:06:11.697Z,32.36
2024-04-24T20:08:39.411Z,32.75
2024-04-24T20:11:08.122Z,33.30
2024-04-24T20:13:36.041Z,32.84
2024-04-24T20:16:07.305Z,33.26
2024-04-24T20:18:36.485Z,33.06
2024-04-24T20:21:13.636Z,33.22
2024-04-24T20:23:40.932Z,33.71
2024-04-24T20:26:13.553Z,32.93
2024-04-24T20:28:40.741Z,33.49
2024-04-24T20:31:08.193Z,33.01
2024-04-24T20:33:35.546Z,32.88
2024-04-24T20:36:15.519Z,33.09
2024-04-24T20:38:42.726Z,32.87
2024-04-24T20:41:11.272Z,32.72
2024-04-24T20:43:38.497Z,32.70
2024-04-24T20:46:05.818Z,32.19
2024-04-24T20:48:34.527Z,32.63
2024-04-24T20:51:02.396Z,32.04
2024-04-24T20:53:30.108Z,32.78
2024-04-24T20:55:58.308Z,32.66
2024-04-24T20:58:28.703Z,32.55
2024-04-24T21:00:55.796Z,32.50
2024-04-24T21:03:23.017Z,33.13
2024-04-24T21:05:50.772Z,33.60
2024-04-24T21:08:17.976Z,33.82
2024-04-24T21:10:45.066Z,34.52
2024-04-24T21:13:12.166Z,34.28
2024-04-24T21:15:39.215Z,34.80
2024-04-24T21:18:06.450Z,34.62
2024-04-24T21:20:33.585Z,34.45
2024-04-24T21:23:00.802Z,34.37
2024-04-24T21:25:27.912Z,34.52
2024-04-24T21:27:58.075Z,34.70
2024-04-24T21:30:25.156Z,34.84
2024-04-24T21:32:52.266Z,35.04
2024-04-24T21:35:19.385Z,34.75
2024-04-24T21:37:46.499Z,35.04
2024-04-24T21:40:13.762Z,34.83
2024-04-24T21:42:41.875Z,34.75
2024-04-24T21:45:09.410Z,35.31
2024-04-24T21:47:36.602Z,35.15
2024-04-24T21:50:04.149Z,35.29
2024-04-24T21:52:31.436Z,35.20
2024-04-24T21:54:59.070Z,35.26
2024-04-24T21:57:26.231Z,35.57
2024-04-24T21:59:53.309Z,35.32
2024-04-24T22:02:20.423Z,35.57
2024-04-24T22:04:47.545Z,36.21
2024-04-24T22:07:14.602Z,35.61
2024-04-24T22:09:41.714Z,35.70
2024-04-24T22:12:08.940Z,35.85
2024-04-24T22:14:36.088Z,35.72
2024-04-24T22:17:06.764Z,35.97
2024-04-24T22:19:41.275Z,36.00
2024-04-24T22:22:08.475Z,36.03
2024-04-24T22:24:35.559Z,35.69
2024-04-24T22:27:02.724Z,36.21
2024-04-24T22:29:29.907Z,36.26
2024-04-24T22:31:56.944Z,36.65
2024-04-24T22:34:24.042Z,36.56
2024-04-24T22:36:51.062Z,36.75
2024-04-24T22:39:20.752Z,36.87
2024-04-24T22:41:47.953Z,37.11
2024-04-24T22:44:15.004Z,36.88
2024-04-24T22:46:42.062Z,37.44
2024-04-24T22:49:09.127Z,37.21
2024-04-24T22:51:36.136Z,37.31
2024-04-24T22:54:03.156Z,37.55
2024-04-24T22:56:30.306Z,37.49
2024-04-24T22:58:57.371Z,37.78
2024-04-24T23:01:24.497Z,38.42
2024-04-24T23:03:51.641Z,38.13
2024-04-24T23:06:18.712Z,38.41
2024-04-24T23:08:45.728Z,38.32
2024-04-24T23:11:13.337Z,38.61
2024-04-24T23:13:41.141Z,38.93
2024-04-24T23:16:08.337Z,38.81
2024-04-24T23:18:36.083Z,38.79
2024-04-24T23:21:03.255Z,39.07
2024-04-24T23:23:30.354Z,39.63
2024-04-24T23:25:57.552Z,39.57
2024-04-24T23:28:24.589Z,39.95
2024-04-24T23:30:51.582Z,39.75
2024-04-24T23:33:18.704Z,39.75
2024-04-24T23:35:45.763Z,39.69
2024-04-24T23:38:13.414Z,39.38
2024-04-24T23:40:40.485Z,39.98
2024-04-24T23:43:08.754Z,39.94
2024-04-24T23:45:35.842Z,40.21
2024-04-24T23:48:03.001Z,40.46
2024-04-24T23:50:30.111Z,40.41
2024-04-24T23:52:57.152Z,40.65
2024-04-24T23:55:24.199Z,40.47
2024-04-24T23:57:51.208Z,40.78
